Terminal Aerodrome Forecast
Issued by NWS

Home | Current Version | Previous Version | Text Only | Print | Product List | Glossary On
Versions: 1 2 3 4 5 6 7 8 9 10 11 12 13
000
FTUS42 KMLB 202320
TAFISM
TAF
KISM 202320Z 2100/2124 24004KT P6SM FEW045
     FM210800 19003KT 3SM BR SCT004 BKN008
      TEMPO 2110/2113 BKN004
     FM211400 19008KT P6SM FEW010 BKN150
     FM211800 20010KT P6SM SCT040=

USA.gov is the U.S. government's official web portal to all federal, state and local government web resources and services.